Time;durP1;ratioP1;P1;durP2;ratioP2;P2;SDS_P1;SDS_P2;PMS_P1;PMS_P2;Temp;Humidity;BMP_temperature;BMP_pressure;BME280_temperature;BME280_humidity;BME280_pressure;Samples;Min_cycle;Max_cycle;Signal;HPM_P1;HPM_P2
2022/12/15 00:39:43;;;;;;;68.70;38.00;;;-4.90;99.90;;;;;;5112373;28;20240;-50
2022/12/15 00:42:10;;;;;;;54.08;36.90;;;-5.00;99.90;;;;;;5113802;28;20201;-50
2022/12/15 00:44:37;;;;;;;73.45;39.25;;;-5.50;99.90;;;;;;5114351;28;20207;-50
2022/12/15 00:47:03;;;;;;;67.88;39.85;;;-5.40;99.90;;;;;;5114429;28;20221;-51
2022/12/15 01:22:35;;;;;;;61.97;36.40;;;-4.90;99.90;;;;;;5114180;28;20310;-51
2022/12/15 01:25:02;;;;;;;59.83;36.65;;;-5.50;99.90;;;;;;5113457;28;20190;-50
2022/12/15 01:27:29;;;;;;;69.50;38.95;;;-5.10;99.90;;;;;;5113407;28;20201;-49
2022/12/15 01:29:55;;;;;;;68.47;40.65;;;-5.60;99.90;;;;;;5112870;28;20217;-50
2022/12/15 01:32:22;;;;;;;67.60;40.88;;;-5.20;99.90;;;;;;5113498;28;20639;-51
2022/12/15 01:34:50;;;;;;;69.47;40.85;;;-5.10;99.90;;;;;;5112082;28;20243;-51
2022/12/15 01:37:16;;;;;;;65.00;39.83;;;-5.20;99.90;;;;;;5112058;28;20212;-50
2022/12/15 01:42:30;;;;;;;63.25;39.22;;;-4.80;99.90;;;;;;5113210;28;20342;-51
2022/12/15 01:45:29;;;;;;;67.20;40.70;;;-5.00;99.90;;;;;;5113201;28;20255;-50
2022/12/15 01:48:01;;;;;;;69.00;38.47;;;-4.80;99.90;;;;;;5113117;28;20198;-51
2022/12/15 01:50:29;;;;;;;69.15;38.60;;;-4.70;99.90;;;;;;5112371;27;20218;-51
2022/12/15 01:52:56;;;;;;;72.05;40.92;;;-5.10;99.90;;;;;;5112588;28;20222;-51
2022/12/15 01:55:27;;;;;;;82.93;42.50;;;-5.10;99.90;;;;;;5112560;28;20220;-51
2022/12/15 01:57:59;;;;;;;73.88;42.97;;;-4.70;99.90;;;;;;5113042;28;20201;-50
2022/12/15 02:00:26;;;;;;;72.82;41.30;;;-4.90;99.90;;;;;;5112068;28;20217;-51
2022/12/15 02:02:54;;;;;;;71.30;41.92;;;-5.40;99.90;;;;;;5112823;28;20190;-50
2022/12/15 02:05:22;;;;;;;68.10;41.28;;;-4.90;99.90;;;;;;5112672;28;20674;-50
2022/12/15 02:07:48;;;;;;;77.22;42.17;;;-4.70;99.90;;;;;;5111493;28;20205;-51
2022/12/15 02:10:15;;;;;;;66.68;38.75;;;-5.10;99.90;;;;;;5112008;28;20225;-51
2022/12/15 02:12:53;;;;;;;79.00;42.28;;;-4.80;99.90;;;;;;5112555;28;20698;-50
2022/12/15 02:15:27;;;;;;;69.00;42.13;;;-4.80;99.90;;;;;;5112580;28;20206;-51
2022/12/15 02:18:02;;;;;;;76.85;44.10;;;-4.70;99.90;;;;;;5112643;28;20599;-50
2022/12/15 02:20:44;;;;;;;74.30;40.28;;;-5.00;99.90;;;;;;5110461;28;20228;-50
2022/12/15 02:23:48;;;;;;;65.68;39.58;;;-4.80;99.90;;;;;;5112347;28;20208;-52
2022/12/15 02:26:46;;;;;;;65.05;39.75;;;-4.70;99.90;;;;;;5112763;28;20193;-51
2022/12/15 02:29:36;;;;;;;71.45;40.50;;;-5.10;99.90;;;;;;5112273;28;20215;-51
2022/12/15 02:32:09;;;;;;;68.07;38.25;;;-4.80;99.90;;;;;;5112266;28;20194;-51
2022/12/15 02:34:43;;;;;;;74.82;39.30;;;-5.00;99.90;;;;;;5112415;28;20212;-50
2022/12/15 02:37:14;;;;;;;72.10;41.60;;;-4.90;99.90;;;;;;5112253;28;20206;-51
2022/12/15 02:39:59;;;;;;;80.07;42.33;;;-4.80;99.90;;;;;;5111541;28;20293;-52
2022/12/15 02:42:28;;;;;;;74.50;40.85;;;-4.90;99.90;;;;;;5112339;28;20284;-50
2022/12/15 02:44:58;;;;;;;72.20;39.60;;;-4.90;99.90;;;;;;5112318;28;20193;-51
2022/12/15 02:47:33;;;;;;;68.15;40.58;;;-5.20;99.90;;;;;;5112232;28;20222;-52
2022/12/15 02:50:33;;;;;;;81.97;42.33;;;-4.90;99.90;;;;;;5111461;28;20596;-50
2022/12/15 02:53:12;;;;;;;63.22;40.22;;;-4.80;99.90;;;;;;5112213;28;20583;-51
2022/12/15 02:55:50;;;;;;;74.68;40.80;;;-4.80;99.90;;;;;;5112369;28;20584;-51
2022/12/15 02:58:23;;;;;;;66.40;40.08;;;-4.70;99.90;;;;;;5112151;28;20198;-51
2022/12/15 03:00:57;;;;;;;62.75;39.75;;;-4.70;99.90;;;;;;5111959;28;20567;-51
2022/12/15 03:03:27;;;;;;;66.45;39.15;;;-4.70;99.90;;;;;;5112133;28;20194;-51
2022/12/15 03:05:56;;;;;;;57.22;36.72;;;-4.50;99.90;;;;;;5114795;28;20194;-51
2022/12/15 03:08:23;;;;;;;60.35;37.50;;;-4.60;99.90;;;;;;5115701;28;20674;-52
2022/12/15 03:10:52;;;;;;;61.30;36.40;;;-4.90;99.90;;;;;;5115912;28;20201;-50
2022/12/15 03:13:22;;;;;;;64.25;37.80;;;-4.40;99.90;;;;;;5116055;28;20202;-50
2022/12/15 03:15:49;;;;;;;62.72;37.72;;;-4.30;99.90;;;;;;5114884;28;20209;-52
2022/12/15 03:18:17;;;;;;;57.20;35.35;;;-4.20;99.90;;;;;;5116002;28;20198;-51
2022/12/15 03:20:45;;;;;;;63.35;34.42;;;-4.30;99.90;;;;;;5113895;28;20214;-50
2022/12/15 03:23:11;;;;;;;64.63;35.17;;;-4.20;99.90;;;;;;5115899;28;20193;-51
2022/12/15 03:25:38;;;;;;;59.00;34.45;;;-4.20;99.90;;;;;;5115919;28;20193;-51
2022/12/15 03:28:05;;;;;;;59.42;35.47;;;-4.50;99.90;;;;;;5115994;28;20681;-51
2022/12/15 03:30:31;;;;;;;56.97;34.75;;;-3.80;99.90;;;;;;5115190;28;20214;-51
2022/12/15 03:32:58;;;;;;;58.22;33.70;;;-4.00;99.90;;;;;;5115640;28;20220;-50
2022/12/15 03:35:25;;;;;;;61.22;34.70;;;-4.20;99.90;;;;;;5115647;28;20202;-51
2022/12/15 03:37:52;;;;;;;68.10;35.20;;;-4.20;99.90;;;;;;5115664;28;20194;-51
2022/12/15 03:40:19;;;;;;;60.88;35.88;;;-4.10;99.90;;;;;;5114780;28;20218;-50
2022/12/15 03:42:48;;;;;;;65.93;36.00;;;-4.30;99.90;;;;;;5115517;28;20533;-51
2022/12/15 03:45:16;;;;;;;54.55;35.28;;;-4.20;99.90;;;;;;5115574;28;20667;-50
2022/12/15 03:47:44;;;;;;;59.10;34.70;;;-4.30;99.90;;;;;;5115424;28;20238;-51
2022/12/15 03:50:12;;;;;;;59.15;35.47;;;-4.30;99.90;;;;;;5114986;28;20229;-51
2022/12/15 03:52:39;;;;;;;65.60;35.72;;;-4.10;99.90;;;;;;5115357;28;20229;-51
2022/12/15 03:55:08;;;;;;;64.93;36.65;;;-4.30;99.90;;;;;;5115221;28;20205;-51
2022/12/15 03:57:34;;;;;;;65.05;36.97;;;-4.30;99.90;;;;;;5115322;28;20202;-51
2022/12/15 04:00:01;;;;;;;64.22;36.95;;;-3.90;99.90;;;;;;5114404;28;20224;-50
2022/12/15 04:02:28;;;;;;;56.70;34.83;;;-4.20;99.90;;;;;;5115010;28;20225;-51
2022/12/15 04:04:54;;;;;;;66.85;36.13;;;-4.20;99.90;;;;;;5115115;28;20190;-51
2022/12/15 04:07:21;;;;;;;71.07;37.63;;;-4.20;99.90;;;;;;5115150;28;20198;-51
2022/12/15 04:09:47;;;;;;;69.07;36.10;;;-4.00;99.90;;;;;;5114324;28;20210;-50
2022/12/15 04:12:15;;;;;;;56.88;35.35;;;-4.20;99.90;;;;;;5115170;28;20194;-50
2022/12/15 04:14:42;;;;;;;65.05;38.45;;;-3.90;99.90;;;;;;5114925;28;20218;-49
2022/12/15 04:17:09;;;;;;;61.08;34.67;;;-4.10;99.90;;;;;;5114040;28;20198;-50
2022/12/15 04:22:20;;;;;;;52.97;33.70;;;-4.10;99.90;;;;;;5114860;28;20223;-50
2022/12/15 05:33:28;;;;;;;55.30;36.40;;;-4.50;99.90;;;;;;5114606;28;20228;-50
2022/12/15 05:35:56;;;;;;;60.25;35.67;;;-4.60;99.90;;;;;;5113695;28;20221;-50
2022/12/15 05:38:23;;;;;;;56.90;35.00;;;-4.60;99.90;;;;;;5113182;28;20194;-51
2022/12/15 05:40:49;;;;;;;69.00;35.75;;;-4.50;99.90;;;;;;5113227;28;20197;-50
2022/12/15 05:43:16;;;;;;;52.95;31.90;;;-4.50;99.90;;;;;;5113287;28;20206;-51
2022/12/15 05:45:43;;;;;;;55.13;33.30;;;-4.50;99.90;;;;;;5112890;28;20202;-51
2022/12/15 05:48:09;;;;;;;58.28;34.00;;;-5.00;99.90;;;;;;5113179;28;20201;-50
2022/12/15 05:50:37;;;;;;;53.08;32.95;;;-4.70;99.90;;;;;;5112357;28;20240;-51
2022/12/15 05:53:06;;;;;;;50.85;31.90;;;-5.10;99.90;;;;;;5112916;28;20206;-52
2022/12/15 05:55:32;;;;;;;61.70;33.22;;;-4.60;99.90;;;;;;5112889;28;20190;-50
2022/12/15 05:57:59;;;;;;;55.90;34.80;;;-4.50;99.90;;;;;;5112838;28;20658;-51
2022/12/15 06:00:26;;;;;;;61.92;33.38;;;-4.60;99.90;;;;;;5110435;28;20231;-50
2022/12/15 06:02:52;;;;;;;55.65;32.53;;;-4.70;99.90;;;;;;5112875;28;20194;-51
2022/12/15 06:05:19;;;;;;;56.95;31.40;;;-4.60;99.90;;;;;;5112848;28;20198;-51
2022/12/15 06:07:47;;;;;;;51.03;32.72;;;-5.30;99.90;;;;;;5112735;28;20205;-51
2022/12/15 06:10:13;;;;;;;58.13;32.38;;;-4.80;99.90;;;;;;5111877;28;20225;-50
2022/12/15 06:12:40;;;;;;;61.13;32.53;;;-4.90;99.90;;;;;;5112436;28;20194;-50
2022/12/15 06:15:07;;;;;;;52.22;29.75;;;-4.80;99.90;;;;;;5112494;28;20571;-50
2022/12/15 06:17:34;;;;;;;53.65;30.80;;;-4.80;99.90;;;;;;5112497;28;20194;-50
2022/12/15 06:20:01;;;;;;;52.95;30.70;;;-4.90;99.90;;;;;;5111852;28;20225;-51
2022/12/15 06:22:28;;;;;;;61.00;32.88;;;-4.80;99.90;;;;;;5112355;28;20200;-51
2022/12/15 06:24:56;;;;;;;55.22;32.25;;;-4.80;99.90;;;;;;5112248;28;20190;-51
2022/12/15 06:27:23;;;;;;;53.08;29.45;;;-4.80;99.90;;;;;;5111723;28;20190;-51
2022/12/15 06:29:49;;;;;;;54.90;30.33;;;-4.90;99.90;;;;;;5111770;28;20980;-50
2022/12/15 06:32:16;;;;;;;53.92;29.75;;;-5.00;99.90;;;;;;5111954;28;20201;-50
2022/12/15 06:34:42;;;;;;;55.10;29.38;;;-4.90;99.90;;;;;;5112424;28;20224;-51
2022/12/15 06:37:09;;;;;;;50.30;30.13;;;-5.60;99.90;;;;;;5112350;28;20677;-50
2022/12/15 06:39:36;;;;;;;53.55;29.00;;;-4.80;99.90;;;;;;5110976;28;20210;-53
2022/12/15 06:42:04;;;;;;;60.60;31.40;;;-4.80;99.90;;;;;;5112762;28;20621;-51
2022/12/15 06:44:30;;;;;;;59.35;30.83;;;-5.00;99.90;;;;;;5111991;28;20764;-51
2022/12/15 06:46:57;;;;;;;57.22;30.58;;;-4.90;99.90;;;;;;5111541;28;20282;-51
2022/12/15 06:49:24;;;;;;;61.45;31.13;;;-4.90;99.90;;;;;;5111113;28;20221;-51
2022/12/15 06:51:50;;;;;;;58.25;31.05;;;-4.90;99.90;;;;;;5111880;28;20241;-50
2022/12/15 06:54:17;;;;;;;54.35;30.90;;;-4.80;99.90;;;;;;5111823;28;20210;-50
2022/12/15 06:56:43;;;;;;;61.35;33.22;;;-5.10;99.90;;;;;;5111210;28;20213;-51
2022/12/15 06:59:12;;;;;;;49.38;28.65;;;-5.70;99.90;;;;;;5110687;28;20228;-51
2022/12/15 07:01:40;;;;;;;62.00;32.30;;;-4.90;99.90;;;;;;5111958;28;20682;-50
2022/12/15 07:04:07;;;;;;;55.28;30.60;;;-4.80;99.90;;;;;;5111532;28;20250;-52
2022/12/15 07:06:36;;;;;;;60.45;31.15;;;-4.90;99.90;;;;;;5111846;28;20274;-52
2022/12/15 07:09:02;;;;;;;57.47;31.65;;;-4.80;99.90;;;;;;5110994;28;20229;-50
2022/12/15 07:11:29;;;;;;;60.67;30.35;;;-5.20;99.90;;;;;;5111655;28;20204;-51
2022/12/15 07:13:56;;;;;;;57.00;31.00;;;-4.90;99.90;;;;;;5111723;28;20766;-51
2022/12/15 07:16:24;;;;;;;51.58;31.35;;;-4.90;99.90;;;;;;5112120;28;20697;-50
2022/12/15 07:18:51;;;;;;;62.15;35.33;;;-4.90;99.90;;;;;;5110733;28;20232;-51
2022/12/15 07:21:18;;;;;;;59.95;33.35;;;-4.80;99.90;;;;;;5111566;28;20194;-51
2022/12/15 07:23:44;;;;;;;61.22;33.47;;;-4.90;99.90;;;;;;5112371;28;20197;-52
2022/12/15 07:26:11;;;;;;;62.35;33.55;;;-4.80;99.90;;;;;;5112041;28;20198;-51
2022/12/15 07:28:38;;;;;;;59.38;31.50;;;-4.90;99.90;;;;;;5111228;28;20194;-51
2022/12/15 07:31:06;;;;;;;54.97;32.38;;;-4.90;99.90;;;;;;5111889;28;20207;-51
2022/12/15 07:33:36;;;;;;;59.00;32.17;;;-5.00;99.90;;;;;;5110090;28;20222;-51
2022/12/15 07:36:03;;;;;;;50.63;28.88;;;-4.90;99.90;;;;;;5111723;28;20572;-51
2022/12/15 07:38:30;;;;;;;50.90;29.10;;;-5.00;99.90;;;;;;5110590;28;20197;-51
2022/12/15 07:41:01;;;;;;;49.88;30.33;;;-5.20;99.90;;;;;;5111186;28;20194;-52
2022/12/15 07:43:28;;;;;;;50.00;30.90;;;-5.10;99.90;;;;;;5111361;28;20194;-51
2022/12/15 07:45:55;;;;;;;46.85;29.02;;;-4.50;99.90;;;;;;5111107;28;20198;-51
2022/12/15 07:48:22;;;;;;;46.88;27.80;;;-5.00;99.90;;;;;;5110913;28;20190;-51
2022/12/15 07:50:50;;;;;;;44.28;27.85;;;-4.90;99.90;;;;;;5111316;28;20655;-49
2022/12/15 07:53:17;;;;;;;44.30;26.25;;;-5.10;99.90;;;;;;5114038;28;20201;-52
2022/12/15 07:55:44;;;;;;;45.08;27.02;;;-5.20;99.90;;;;;;5114987;28;20198;-52
2022/12/15 07:58:10;;;;;;;46.75;29.95;;;-5.00;99.90;;;;;;5115107;28;20205;-51
2022/12/15 08:00:37;;;;;;;53.35;30.30;;;-4.80;99.90;;;;;;5114022;28;20582;-50
2022/12/15 08:03:03;;;;;;;46.47;30.20;;;-4.90;99.90;;;;;;5114793;28;20201;-50
2022/12/15 08:05:30;;;;;;;47.58;27.60;;;-5.00;99.90;;;;;;5114898;28;20185;-51
2022/12/15 08:07:58;;;;;;;38.53;26.80;;;-4.90;99.90;;;;;;5114752;28;20194;-51
2022/12/15 08:10:25;;;;;;;44.83;27.23;;;-5.00;99.90;;;;;;5113776;28;20222;-52
2022/12/15 08:12:53;;;;;;;46.97;26.23;;;-4.60;99.90;;;;;;5114238;28;20190;-51
2022/12/15 08:15:19;;;;;;;46.92;30.52;;;-4.80;99.90;;;;;;5113149;28;20229;-52
2022/12/15 08:17:46;;;;;;;50.25;33.85;;;-5.40;99.90;;;;;;5113293;28;20441;-50
2022/12/15 08:20:14;;;;;;;49.78;31.02;;;-4.90;99.90;;;;;;5113923;28;20224;-50
2022/12/15 08:22:40;;;;;;;46.60;28.65;;;-4.50;99.90;;;;;;5114256;28;20190;-50
2022/12/15 08:25:09;;;;;;;50.53;33.78;;;-4.80;99.90;;;;;;5112996;28;20414;-51
2022/12/15 08:27:36;;;;;;;53.00;32.40;;;-4.40;99.90;;;;;;5114779;28;20204;-51
2022/12/15 08:30:03;;;;;;;48.13;30.05;;;-4.10;99.90;;;;;;5106275;28;20224;-51
2022/12/15 08:32:29;;;;;;;50.30;31.05;;;-4.60;99.90;;;;;;5096710;28;20195;-51
2022/12/15 08:34:56;;;;;;;44.75;28.65;;;-4.30;99.90;;;;;;5112893;28;20217;-52
2022/12/15 08:37:23;;;;;;;47.28;29.25;;;-4.60;99.90;;;;;;5108798;28;20194;-51
2022/12/15 08:39:49;;;;;;;51.97;28.38;;;-4.40;99.90;;;;;;5091235;28;20616;-52
2022/12/15 08:42:17;;;;;;;47.35;30.17;;;-4.50;99.90;;;;;;5093173;28;20430;-54
2022/12/15 08:44:48;;;;;;;56.22;29.65;;;-4.30;99.90;;;;;;5092962;28;20685;-51
2022/12/15 08:47:14;;;;;;;51.83;29.60;;;-5.20;99.90;;;;;;5108730;28;20655;-51
2022/12/15 08:49:41;;;;;;;51.53;28.38;;;-4.60;99.90;;;;;;5112836;28;20547;-51
2022/12/15 08:52:08;;;;;;;43.75;28.35;;;-4.50;99.90;;;;;;5114069;28;20684;-51
2022/12/15 08:54:34;;;;;;;52.05;30.30;;;-4.40;99.90;;;;;;5113831;28;20214;-51
2022/12/15 08:57:01;;;;;;;47.70;29.48;;;-4.50;99.90;;;;;;5113717;28;20194;-51
2022/12/15 08:59:29;;;;;;;41.63;27.45;;;-4.30;99.90;;;;;;5112569;28;20214;-51
2022/12/15 09:01:55;;;;;;;48.63;27.83;;;-4.40;99.90;;;;;;5113684;28;20663;-52
2022/12/15 09:04:22;;;;;;;42.38;28.08;;;-4.40;99.90;;;;;;5097123;28;20195;-52
2022/12/15 09:06:49;;;;;;;46.30;27.15;;;-4.20;99.90;;;;;;5092794;28;20222;-49
2022/12/15 09:09:16;;;;;;;49.97;29.13;;;-4.50;99.90;;;;;;5091962;28;20211;-52
2022/12/15 09:11:42;;;;;;;45.13;28.90;;;-4.30;99.90;;;;;;5092720;28;20197;-52
2022/12/15 09:14:09;;;;;;;46.03;29.40;;;-4.30;99.90;;;;;;5092210;28;20221;-51
2022/12/15 09:16:37;;;;;;;52.65;26.90;;;-4.30;99.90;;;;;;5091030;28;20213;-51
2022/12/15 09:19:04;;;;;;;45.95;27.80;;;-4.30;99.90;;;;;;5091842;28;20320;-52
2022/12/15 09:21:31;;;;;;;52.88;32.20;;;-4.40;99.90;;;;;;5093295;28;20202;-52
2022/12/15 09:24:00;;;;;;;44.90;30.08;;;-4.80;99.90;;;;;;5092861;28;20566;-50
2022/12/15 09:26:28;;;;;;;44.95;28.52;;;-4.20;99.90;;;;;;5092505;28;20668;-50
2022/12/15 09:28:55;;;;;;;44.38;27.83;;;-4.00;99.90;;;;;;5091825;28;20214;-50
2022/12/15 09:31:24;;;;;;;45.58;27.45;;;-4.20;99.90;;;;;;5092514;28;20213;-51
2022/12/15 09:33:53;;;;;;;46.25;28.08;;;-4.10;99.90;;;;;;5092617;28;20198;-51
2022/12/15 09:36:21;;;;;;;52.15;31.38;;;-4.00;99.90;;;;;;5092970;28;20271;-51
2022/12/15 09:38:48;;;;;;;48.67;27.13;;;-4.10;99.90;;;;;;5091628;28;20254;-52
2022/12/15 09:41:22;;;;;;;47.40;27.92;;;-3.80;99.90;;;;;;5091287;28;20191;-50
2022/12/15 09:43:55;;;;;;;46.60;28.88;;;-4.00;99.90;;;;;;5090571;28;20735;-50
2022/12/15 09:46:27;;;;;;;47.35;27.48;;;-4.00;99.90;;;;;;5091059;28;20209;-51
2022/12/15 09:48:58;;;;;;;48.35;28.60;;;-4.00;99.90;;;;;;5091575;28;20222;-51
2022/12/15 09:51:33;;;;;;;52.92;31.67;;;-3.80;99.90;;;;;;5092142;28;20205;-51
2022/12/15 09:54:00;;;;;;;56.72;31.27;;;-3.90;99.90;;;;;;5098262;28;20205;-52
2022/12/15 09:56:40;;;;;;;50.58;29.05;;;-4.00;99.90;;;;;;5094741;28;20268;-51
2022/12/15 09:59:19;;;;;;;50.40;28.63;;;-4.00;99.90;;;;;;5091298;28;20726;-52
2022/12/15 10:01:53;;;;;;;52.15;29.63;;;-3.80;99.90;;;;;;5102429;28;20193;-51
2022/12/15 10:04:31;;;;;;;48.95;28.50;;;-3.60;99.90;;;;;;5112165;28;20197;-51
2022/12/15 10:07:06;;;;;;;44.17;28.33;;;-3.50;99.90;;;;;;5112133;28;20778;-50
2022/12/15 10:09:32;;;;;;;46.83;28.73;;;-3.50;99.90;;;;;;5111560;28;20217;-50
2022/12/15 10:12:03;;;;;;;48.95;26.98;;;-3.30;99.90;;;;;;5110889;28;20659;-52
2022/12/15 10:14:37;;;;;;;41.95;26.30;;;-3.60;99.90;;;;;;5090577;28;20325;-50
2022/12/15 10:17:16;;;;;;;43.53;27.45;;;-3.40;99.90;;;;;;5091685;28;20201;-51
2022/12/15 10:19:49;;;;;;;47.30;29.38;;;-3.20;99.90;;;;;;5090947;28;20222;-51
2022/12/15 10:22:22;;;;;;;48.20;29.60;;;-3.00;99.90;;;;;;5091222;28;20675;-52
2022/12/15 10:24:49;;;;;;;48.80;27.23;;;-3.00;99.90;;;;;;5089961;28;20199;-51
2022/12/15 10:27:30;;;;;;;49.55;29.17;;;-2.70;99.90;;;;;;5095019;28;20206;-52
2022/12/15 10:30:01;;;;;;;44.97;28.33;;;-3.40;99.90;;;;;;5108643;28;20221;-52
2022/12/15 10:32:35;;;;;;;51.30;33.92;;;-2.80;99.90;;;;;;5109916;28;20431;-52
2022/12/15 10:35:08;;;;;;;47.67;29.23;;;-2.20;99.90;;;;;;5112235;28;20291;-52
2022/12/15 10:37:35;;;;;;;49.22;30.80;;;-2.10;99.90;;;;;;5103873;28;20198;-50
2022/12/15 10:40:02;;;;;;;49.97;28.48;;;-2.20;99.90;;;;;;5097659;28;20580;-51
2022/12/15 10:42:29;;;;;;;46.58;28.15;;;-2.60;99.90;;;;;;5095430;28;20226;-52
2022/12/15 10:44:57;;;;;;;56.35;36.72;;;-2.40;99.90;;;;;;5090283;28;20924;-52
2022/12/15 10:47:26;;;;;;;52.15;31.58;;;-1.90;99.90;;;;;;5091396;28;20194;-52
2022/12/15 10:49:54;;;;;;;43.88;29.48;;;-2.20;99.90;;;;;;5089201;28;20218;-52
2022/12/15 10:52:27;;;;;;;50.08;31.27;;;-1.80;99.90;;;;;;5090679;28;20194;-50
2022/12/15 10:54:55;;;;;;;45.28;29.10;;;-2.20;99.90;;;;;;5089834;28;20211;-51
2022/12/15 10:57:26;;;;;;;60.15;30.30;;;-1.90;99.90;;;;;;5090598;28;20659;-50
2022/12/15 10:59:53;;;;;;;46.13;30.20;;;-2.90;99.90;;;;;;5089797;28;20297;-51
2022/12/15 11:02:36;;;;;;;42.65;28.25;;;-2.10;99.90;;;;;;5089645;28;20213;-51
2022/12/15 11:05:06;;;;;;;47.65;28.13;;;-2.20;99.90;;;;;;5091471;28;20277;-51
2022/12/15 11:07:39;;;;;;;44.28;28.23;;;-2.10;99.90;;;;;;5091195;28;20199;-51
2022/12/15 11:10:26;;;;;;;49.75;29.42;;;-2.10;99.90;;;;;;5089386;28;20272;-51
2022/12/15 11:13:09;;;;;;;49.97;28.83;;;-1.90;99.90;;;;;;5091579;28;20190;-50
2022/12/15 11:15:42;;;;;;;47.67;29.60;;;-1.90;99.90;;;;;;5090440;28;20255;-50
2022/12/15 11:18:18;;;;;;;46.15;29.42;;;-2.70;99.90;;;;;;5091008;28;20226;-50
2022/12/15 11:20:50;;;;;;;60.75;31.35;;;-2.00;99.90;;;;;;5090369;28;20222;-52
2022/12/15 11:23:28;;;;;;;49.92;26.85;;;-1.90;99.90;;;;;;5091253;28;20209;-50
2022/12/15 11:26:00;;;;;;;49.88;28.10;;;-1.80;99.90;;;;;;5092090;28;20205;-52
2022/12/15 11:28:34;;;;;;;54.47;28.75;;;-1.70;99.90;;;;;;5093035;28;20206;-51
2022/12/15 11:31:09;;;;;;;53.03;30.23;;;-1.60;99.90;;;;;;5095074;28;20198;-50
2022/12/15 11:33:36;;;;;;;47.20;28.65;;;-2.00;99.90;;;;;;5095757;28;20225;-50
2022/12/15 11:36:12;;;;;;;47.15;28.80;;;-1.50;99.90;;;;;;5095094;28;20219;-51
2022/12/15 11:38:44;;;;;;;43.03;27.38;;;-1.30;99.90;;;;;;5111512;28;20201;-51
2022/12/15 11:41:21;;;;;;;48.10;29.25;;;-1.90;99.90;;;;;;5115382;28;20697;-51
2022/12/15 11:44:20;;;;;;;44.35;28.08;;;-1.00;99.90;;;;;;5113864;28;20202;-52
2022/12/15 11:46:55;;;;;;;41.58;28.10;;;-1.20;99.90;;;;;;5109395;28;20670;-52
2022/12/15 11:49:46;;;;;;;44.22;28.15;;;-1.00;99.90;;;;;;5094361;28;20215;-51
2022/12/15 11:52:23;;;;;;;43.60;27.95;;;-1.00;99.90;;;;;;5094607;28;20272;-51
2022/12/15 11:54:55;;;;;;;53.20;29.48;;;-0.90;99.90;;;;;;5094673;28;20219;-51
2022/12/15 11:57:48;;;;;;;47.95;31.10;;;-1.00;99.90;;;;;;5094555;28;20206;-50
2022/12/15 12:00:16;;;;;;;43.97;28.10;;;-0.90;99.90;;;;;;5093845;28;20214;-53
2022/12/15 12:02:59;;;;;;;43.38;27.60;;;-0.50;99.90;;;;;;5098083;28;20200;-51
2022/12/15 12:05:42;;;;;;;44.70;27.85;;;-0.80;99.90;;;;;;5092576;28;20211;-51
2022/12/15 12:08:20;;;;;;;39.08;26.17;;;-0.40;99.90;;;;;;5115405;27;20207;-52
2022/12/15 12:10:58;;;;;;;41.88;27.30;;;-0.60;99.90;;;;;;5107423;28;20677;-51
2022/12/15 12:13:32;;;;;;;38.92;24.88;;;-0.40;99.90;;;;;;5114794;28;20205;-51
2022/12/15 12:16:10;;;;;;;40.58;25.33;;;-0.40;99.90;;;;;;5114641;28;20237;-54
2022/12/15 12:18:40;;;;;;;39.63;27.25;;;-0.20;99.90;;;;;;5110428;28;20204;-50
2022/12/15 12:21:12;;;;;;;39.67;24.13;;;-0.20;99.90;;;;;;5102351;28;20273;-52
2022/12/15 12:23:45;;;;;;;38.28;25.80;;;-0.40;99.90;;;;;;5098661;28;20680;-53
2022/12/15 12:26:19;;;;;;;34.88;24.73;;;-0.40;99.90;;;;;;5114229;28;20198;-51
2022/12/15 12:28:51;;;;;;;39.85;25.90;;;-0.40;99.90;;;;;;5102417;28;20223;-51
2022/12/15 12:31:27;;;;;;;42.83;26.20;;;-0.40;99.90;;;;;;5094423;28;20659;-51
2022/12/15 12:33:58;;;;;;;39.58;26.48;;;-0.50;99.90;;;;;;5114124;28;20193;-51
2022/12/15 12:36:25;;;;;;;55.30;27.98;;;-0.60;99.90;;;;;;5113749;28;20225;-51
2022/12/15 12:38:56;;;;;;;45.38;26.80;;;-0.40;99.90;;;;;;5093446;28;20259;-52
2022/12/15 12:41:32;;;;;;;43.13;28.35;;;-0.80;99.90;;;;;;5095864;28;20202;-51
2022/12/15 12:44:04;;;;;;;43.85;28.08;;;-0.90;99.90;;;;;;5105987;28;20201;-51
2022/12/15 12:46:34;;;;;;;40.65;26.40;;;-0.90;99.90;;;;;;5103176;28;20208;-51
2022/12/15 12:49:05;;;;;;;46.00;28.58;;;-0.80;99.90;;;;;;5100410;27;20249;-51
2022/12/15 12:51:34;;;;;;;49.58;29.88;;;-0.60;99.90;;;;;;5093714;28;20428;-52
2022/12/15 12:54:01;;;;;;;48.58;29.75;;;-0.70;99.90;;;;;;5094601;28;20214;-52
2022/12/15 12:56:36;;;;;;;41.63;26.67;;;-0.70;99.90;;;;;;5100122;28;20213;-51
2022/12/15 12:59:07;;;;;;;46.03;31.20;;;-1.20;99.90;;;;;;5112946;28;20677;-52
2022/12/15 13:01:35;;;;;;;41.43;28.50;;;-0.60;99.90;;;;;;5097803;28;20534;-51
2022/12/15 13:04:08;;;;;;;44.42;29.10;;;-0.50;99.90;;;;;;5102710;28;20956;-52
2022/12/15 13:06:58;;;;;;;51.72;30.27;;;-0.60;99.90;;;;;;5115034;28;20190;-50
2022/12/15 13:09:38;;;;;;;38.45;26.88;;;-0.80;99.90;;;;;;5092303;28;20221;-57
2022/12/15 13:12:36;;;;;;;43.95;28.55;;;-0.60;99.90;;;;;;5092474;28;20276;-51
2022/12/15 13:15:10;;;;;;;43.72;27.58;;;-0.60;99.90;;;;;;5091054;28;20272;-51
2022/12/15 13:17:41;;;;;;;43.05;27.90;;;-0.80;99.90;;;;;;5092015;28;20207;-51
2022/12/15 13:20:27;;;;;;;37.55;26.95;;;-0.70;99.90;;;;;;5090895;28;20311;-51
2022/12/15 13:22:56;;;;;;;50.22;27.73;;;-0.70;99.90;;;;;;5090943;28;20198;-52
2022/12/15 13:25:35;;;;;;;41.72;27.33;;;-0.60;99.90;;;;;;5092803;28;20667;-52
2022/12/15 13:28:42;;;;;;;44.55;26.42;;;-0.80;99.90;;;;;;5093033;28;20211;-52
2022/12/15 13:31:21;;;;;;;51.20;29.00;;;-0.60;99.90;;;;;;5071723;28;20211;-52
2022/12/15 13:33:55;;;;;;;46.00;28.58;;;-0.90;99.90;;;;;;5092791;28;20214;-52
2022/12/15 13:36:48;;;;;;;43.83;28.65;;;-0.90;99.90;;;;;;5101608;28;20221;-52
2022/12/15 13:39:56;;;;;;;40.28;26.63;;;-0.80;99.90;;;;;;5106422;28;20246;-51
2022/12/15 13:42:38;;;;;;;45.60;28.00;;;-0.70;99.90;;;;;;5107704;28;20648;-50
2022/12/15 13:45:38;;;;;;;44.67;28.10;;;-0.60;99.90;;;;;;5092317;28;20228;-51
2022/12/15 13:48:36;;;;;;;42.97;28.42;;;-0.90;99.90;;;;;;5092278;28;20260;-52
2022/12/15 13:51:17;;;;;;;40.08;25.80;;;-0.70;99.90;;;;;;5098390;28;20204;-52
2022/12/15 13:53:47;;;;;;;43.70;28.92;;;-0.80;99.90;;;;;;5112650;28;20680;-51
2022/12/15 13:56:41;;;;;;;45.75;29.65;;;-0.70;99.90;;;;;;5109731;28;20230;-52
2022/12/15 13:59:18;;;;;;;46.33;29.02;;;-0.60;99.90;;;;;;5103689;27;20238;-52
2022/12/15 14:01:49;;;;;;;59.00;31.27;;;-0.70;99.90;;;;;;5110084;28;20199;-52
2022/12/15 14:04:19;;;;;;;42.55;27.90;;;-1.00;99.90;;;;;;5109939;28;20271;-52
2022/12/15 14:06:48;;;;;;;44.08;28.35;;;-0.80;99.90;;;;;;5109766;28;20194;-52
2022/12/15 14:09:18;;;;;;;45.88;28.48;;;-0.90;99.90;;;;;;5109317;28;20223;-52
2022/12/15 14:11:46;;;;;;;47.25;30.75;;;-0.70;99.90;;;;;;5111802;28;20203;-52
2022/12/15 14:14:19;;;;;;;56.55;31.65;;;-1.00;99.90;;;;;;5112515;28;20203;-51
2022/12/15 14:16:51;;;;;;;52.17;31.58;;;-0.80;99.90;;;;;;5110947;28;20647;-52
2022/12/15 14:19:20;;;;;;;39.75;27.48;;;-1.10;99.90;;;;;;5111632;28;20327;-52
2022/12/15 14:21:51;;;;;;;47.30;27.67;;;-0.80;99.90;;;;;;5112198;28;20201;-52
2022/12/15 14:24:24;;;;;;;43.80;27.00;;;-1.10;99.90;;;;;;5112233;28;20203;-51
2022/12/15 14:26:51;;;;;;;50.80;29.52;;;-1.10;99.90;;;;;;5112565;28;20218;-53
2022/12/15 14:29:18;;;;;;;43.05;27.45;;;-1.10;99.90;;;;;;5111677;28;20226;-52
2022/12/15 14:31:50;;;;;;;46.42;28.63;;;-0.70;99.90;;;;;;5112122;28;20204;-52
2022/12/15 14:34:24;;;;;;;47.90;29.48;;;-1.50;99.90;;;;;;5111473;28;20203;-52
2022/12/15 14:36:53;;;;;;;46.95;27.98;;;-1.00;99.90;;;;;;5111718;28;20206;-51
2022/12/15 14:39:24;;;;;;;48.25;29.55;;;-1.00;99.90;;;;;;5102583;28;20230;-51
2022/12/15 14:41:52;;;;;;;44.60;28.52;;;-0.90;99.90;;;;;;5096531;28;20206;-52
2022/12/15 14:44:25;;;;;;;47.75;27.85;;;-0.80;99.90;;;;;;5111516;28;20681;-51
2022/12/15 14:46:52;;;;;;;47.17;28.10;;;-1.50;99.90;;;;;;5100877;28;20205;-58
2022/12/15 14:49:26;;;;;;;46.42;28.48;;;-1.00;99.90;;;;;;5091007;28;20294;-52
2022/12/15 14:51:58;;;;;;;46.08;29.15;;;-0.80;99.90;;;;;;5091001;28;20350;-52
2022/12/15 14:54:34;;;;;;;50.03;32.28;;;-0.80;99.90;;;;;;5093430;28;20206;-51
2022/12/15 14:57:02;;;;;;;43.28;27.85;;;-1.50;99.90;;;;;;5111283;28;20225;-51
2022/12/15 14:59:32;;;;;;;53.67;31.17;;;-0.80;99.90;;;;;;5110432;28;20592;-51
2022/12/15 15:02:09;;;;;;;55.72;28.80;;;-0.90;99.90;;;;;;5113789;28;20229;-50
2022/12/15 15:04:37;;;;;;;50.67;30.30;;;-0.90;99.90;;;;;;5115723;28;20574;-49
2022/12/15 15:07:06;;;;;;;53.22;29.52;;;-0.70;99.90;;;;;;5114164;28;20623;-52
2022/12/15 15:09:39;;;;;;;56.25;30.75;;;-0.90;99.90;;;;;;5114438;28;20598;-51
2022/12/15 15:12:08;;;;;;;54.00;30.42;;;-1.00;99.90;;;;;;5107749;28;20656;-51
2022/12/15 15:14:40;;;;;;;52.42;32.83;;;-0.90;99.90;;;;;;5105681;28;20213;-52